sensor_id;sensor_type;location;lat;lon;timestamp;temperature;humidity
19817;DHT22;68323;49.394;8.434;2023-08-17T00:00:52;21.30;99.90
19817;DHT22;68323;49.394;8.434;2023-08-17T00:03:18;21.30;99.90
19817;DHT22;68323;49.394;8.434;2023-08-17T00:05:43;21.20;99.90
19817;DHT22;68323;49.394;8.434;2023-08-17T00:08:09;21.20;99.90
19817;DHT22;68323;49.394;8.434;2023-08-17T00:10:35;21.10;99.90
19817;DHT22;68323;49.394;8.434;2023-08-17T00:13:00;21.10;99.90
19817;DHT22;68323;49.394;8.434;2023-08-17T00:15:27;21.10;99.90
19817;DHT22;68323;49.394;8.434;2023-08-17T00:17:53;21.10;99.90
19817;DHT22;68323;49.394;8.434;2023-08-17T00:20:18;21.00;99.90
19817;DHT22;68323;49.394;8.434;2023-08-17T00:22:44;21.10;99.90
19817;DHT22;68323;49.394;8.434;2023-08-17T00:25:09;21.00;99.90
19817;DHT22;68323;49.394;8.434;2023-08-17T00:27:35;21.00;99.90
19817;DHT22;68323;49.394;8.434;2023-08-17T00:30:01;21.00;99.90
19817;DHT22;68323;49.394;8.434;2023-08-17T00:32:26;20.90;99.90
19817;DHT22;68323;49.394;8.434;2023-08-17T00:34:52;20.90;99.90
19817;DHT22;68323;49.394;8.434;2023-08-17T00:37:17;20.90;99.90
19817;DHT22;68323;49.394;8.434;2023-08-17T00:39:43;20.90;99.90
19817;DHT22;68323;49.394;8.434;2023-08-17T00:42:08;20.80;99.90
19817;DHT22;68323;49.394;8.434;2023-08-17T00:44:34;20.80;99.90
19817;DHT22;68323;49.394;8.434;2023-08-17T00:46:59;20.80;99.90
19817;DHT22;68323;49.394;8.434;2023-08-17T00:49:25;20.80;99.90
19817;DHT22;68323;49.394;8.434;2023-08-17T00:51:51;20.80;99.90
19817;DHT22;68323;49.394;8.434;2023-08-17T00:54:22;20.70;99.90
19817;DHT22;68323;49.394;8.434;2023-08-17T00:56:49;20.70;99.90
19817;DHT22;68323;49.394;8.434;2023-08-17T00:59:14;20.70;99.90
19817;DHT22;68323;49.394;8.434;2023-08-17T01:01:40;20.70;99.90
19817;DHT22;68323;49.394;8.434;2023-08-17T01:04:06;20.70;99.90
19817;DHT22;68323;49.394;8.434;2023-08-17T01:06:31;20.60;99.90
19817;DHT22;68323;49.394;8.434;2023-08-17T01:08:57;20.60;99.90
19817;DHT22;68323;49.394;8.434;2023-08-17T01:11:39;20.60;99.90
19817;DHT22;68323;49.394;8.434;2023-08-17T01:14:19;20.60;99.90
19817;DHT22;68323;49.394;8.434;2023-08-17T01:17:15;20.60;99.90
19817;DHT22;68323;49.394;8.434;2023-08-17T01:19:43;20.50;99.90
19817;DHT22;68323;49.394;8.434;2023-08-17T01:22:11;20.50;99.90
19817;DHT22;68323;49.394;8.434;2023-08-17T01:24:38;20.50;99.90
19817;DHT22;68323;49.394;8.434;2023-08-17T01:27:03;20.50;99.90
19817;DHT22;68323;49.394;8.434;2023-08-17T01:29:29;20.50;99.90
19817;DHT22;68323;49.394;8.434;2023-08-17T01:32:09;20.50;99.90
19817;DHT22;68323;49.394;8.434;2023-08-17T01:34:47;20.50;99.90
19817;DHT22;68323;49.394;8.434;2023-08-17T01:37:18;20.50;99.90
19817;DHT22;68323;49.394;8.434;2023-08-17T01:39:45;20.40;99.90
19817;DHT22;68323;49.394;8.434;2023-08-17T01:42:15;20.40;99.90
19817;DHT22;68323;49.394;8.434;2023-08-17T01:44:41;20.40;99.90
19817;DHT22;68323;49.394;8.434;2023-08-17T01:47:06;20.40;99.90
19817;DHT22;68323;49.394;8.434;2023-08-17T01:49:32;20.40;99.90
19817;DHT22;68323;49.394;8.434;2023-08-17T01:51:57;20.40;99.90
19817;DHT22;68323;49.394;8.434;2023-08-17T01:54:24;20.40;99.90
19817;DHT22;68323;49.394;8.434;2023-08-17T01:56:49;20.40;99.90
19817;DHT22;68323;49.394;8.434;2023-08-17T01:59:15;20.40;99.90
19817;DHT22;68323;49.394;8.434;2023-08-17T02:01:40;20.40;99.90
19817;DHT22;68323;49.394;8.434;2023-08-17T02:04:06;20.40;99.90
19817;DHT22;68323;49.394;8.434;2023-08-17T02:06:32;20.40;99.90
19817;DHT22;68323;49.394;8.434;2023-08-17T02:08:58;20.40;99.90
19817;DHT22;68323;49.394;8.434;2023-08-17T02:11:24;20.40;99.90
19817;DHT22;68323;49.394;8.434;2023-08-17T02:13:49;20.40;99.90
19817;DHT22;68323;49.394;8.434;2023-08-17T02:16:15;20.40;99.90
19817;DHT22;68323;49.394;8.434;2023-08-17T02:18:40;20.40;99.90
19817;DHT22;68323;49.394;8.434;2023-08-17T02:21:06;20.40;99.90
19817;DHT22;68323;49.394;8.434;2023-08-17T02:23:31;20.40;99.90
19817;DHT22;68323;49.394;8.434;2023-08-17T02:25:57;20.40;99.90
19817;DHT22;68323;49.394;8.434;2023-08-17T02:28:22;20.30;99.90
19817;DHT22;68323;49.394;8.434;2023-08-17T02:30:48;20.30;99.90
19817;DHT22;68323;49.394;8.434;2023-08-17T02:33:14;20.30;99.90
19817;DHT22;68323;49.394;8.434;2023-08-17T02:35:39;20.30;99.90
19817;DHT22;68323;49.394;8.434;2023-08-17T02:38:05;20.30;99.90
19817;DHT22;68323;49.394;8.434;2023-08-17T02:40:31;20.20;99.90
19817;DHT22;68323;49.394;8.434;2023-08-17T02:42:56;20.20;99.90
19817;DHT22;68323;49.394;8.434;2023-08-17T02:45:22;20.20;99.90
19817;DHT22;68323;49.394;8.434;2023-08-17T02:47:47;20.20;99.90
19817;DHT22;68323;49.394;8.434;2023-08-17T02:50:13;20.10;99.90
19817;DHT22;68323;49.394;8.434;2023-08-17T02:52:38;20.10;99.90
19817;DHT22;68323;49.394;8.434;2023-08-17T02:55:04;20.00;99.90
19817;DHT22;68323;49.394;8.434;2023-08-17T02:57:30;20.00;99.90
19817;DHT22;68323;49.394;8.434;2023-08-17T02:59:55;19.90;99.90
19817;DHT22;68323;49.394;8.434;2023-08-17T03:02:21;19.90;99.90
19817;DHT22;68323;49.394;8.434;2023-08-17T03:04:46;19.90;99.90
19817;DHT22;68323;49.394;8.434;2023-08-17T03:07:12;19.90;99.90
19817;DHT22;68323;49.394;8.434;2023-08-17T03:09:37;19.90;99.90
19817;DHT22;68323;49.394;8.434;2023-08-17T03:12:03;19.90;99.90
19817;DHT22;68323;49.394;8.434;2023-08-17T03:14:29;19.90;99.90
19817;DHT22;68323;49.394;8.434;2023-08-17T03:16:54;19.80;99.90
19817;DHT22;68323;49.394;8.434;2023-08-17T03:19:20;19.80;99.90
19817;DHT22;68323;49.394;8.434;2023-08-17T03:21:46;19.80;99.90
19817;DHT22;68323;49.394;8.434;2023-08-17T03:24:11;19.80;99.90
19817;DHT22;68323;49.394;8.434;2023-08-17T03:26:37;19.80;99.90
19817;DHT22;68323;49.394;8.434;2023-08-17T03:29:02;19.80;99.90
19817;DHT22;68323;49.394;8.434;2023-08-17T03:31:28;19.80;99.90
19817;DHT22;68323;49.394;8.434;2023-08-17T03:33:53;19.80;99.90
19817;DHT22;68323;49.394;8.434;2023-08-17T03:36:20;19.80;99.90
19817;DHT22;68323;49.394;8.434;2023-08-17T03:38:46;19.70;99.90
19817;DHT22;68323;49.394;8.434;2023-08-17T03:41:11;19.80;99.90
19817;DHT22;68323;49.394;8.434;2023-08-17T03:43:37;19.70;99.90
19817;DHT22;68323;49.394;8.434;2023-08-17T03:46:04;19.70;99.90
19817;DHT22;68323;49.394;8.434;2023-08-17T03:48:30;19.80;99.90
19817;DHT22;68323;49.394;8.434;2023-08-17T03:50:56;19.70;99.90
19817;DHT22;68323;49.394;8.434;2023-08-17T03:53:21;19.70;99.90
19817;DHT22;68323;49.394;8.434;2023-08-17T03:55:50;19.70;99.90
19817;DHT22;68323;49.394;8.434;2023-08-17T03:58:17;19.70;99.90
19817;DHT22;68323;49.394;8.434;2023-08-17T04:00:52;19.60;99.90
19817;DHT22;68323;49.394;8.434;2023-08-17T04:03:18;19.60;99.90
19817;DHT22;68323;49.394;8.434;2023-08-17T04:05:44;19.60;99.90
19817;DHT22;68323;49.394;8.434;2023-08-17T04:08:09;19.60;99.90
19817;DHT22;68323;49.394;8.434;2023-08-17T04:10:35;19.60;99.90
19817;DHT22;68323;49.394;8.434;2023-08-17T04:13:00;19.60;99.90
19817;DHT22;68323;49.394;8.434;2023-08-17T04:15:26;19.60;99.90
19817;DHT22;68323;49.394;8.434;2023-08-17T04:17:51;19.60;99.90
19817;DHT22;68323;49.394;8.434;2023-08-17T04:20:17;19.50;99.90
19817;DHT22;68323;49.394;8.434;2023-08-17T04:22:44;19.60;99.90
19817;DHT22;68323;49.394;8.434;2023-08-17T04:25:09;19.50;99.90
19817;DHT22;68323;49.394;8.434;2023-08-17T04:27:35;19.60;99.90
19817;DHT22;68323;49.394;8.434;2023-08-17T04:30:01;19.60;99.90
19817;DHT22;68323;49.394;8.434;2023-08-17T04:32:26;19.50;99.90
19817;DHT22;68323;49.394;8.434;2023-08-17T04:34:52;19.60;99.90
19817;DHT22;68323;49.394;8.434;2023-08-17T04:37:17;19.60;99.90
19817;DHT22;68323;49.394;8.434;2023-08-17T04:39:43;19.60;99.90
19817;DHT22;68323;49.394;8.434;2023-08-17T04:42:09;19.60;99.90
19817;DHT22;68323;49.394;8.434;2023-08-17T04:44:35;19.60;99.90
19817;DHT22;68323;49.394;8.434;2023-08-17T04:47:00;19.70;99.90
19817;DHT22;68323;49.394;8.434;2023-08-17T04:49:26;19.70;99.90
19817;DHT22;68323;49.394;8.434;2023-08-17T04:51:52;19.70;99.90
19817;DHT22;68323;49.394;8.434;2023-08-17T04:54:18;19.70;99.90
19817;DHT22;68323;49.394;8.434;2023-08-17T04:56:43;19.70;99.90
19817;DHT22;68323;49.394;8.434;2023-08-17T04:59:09;19.80;99.90
19817;DHT22;68323;49.394;8.434;2023-08-17T05:01:34;19.80;99.90
19817;DHT22;68323;49.394;8.434;2023-08-17T05:04:01;19.80;99.90
19817;DHT22;68323;49.394;8.434;2023-08-17T05:06:30;19.90;99.90
19817;DHT22;68323;49.394;8.434;2023-08-17T05:08:56;20.00;99.90
19817;DHT22;68323;49.394;8.434;2023-08-17T05:11:21;20.00;99.90
19817;DHT22;68323;49.394;8.434;2023-08-17T05:13:47;20.10;99.90
19817;DHT22;68323;49.394;8.434;2023-08-17T05:16:12;20.10;99.90
19817;DHT22;68323;49.394;8.434;2023-08-17T05:18:38;20.10;99.90
19817;DHT22;68323;49.394;8.434;2023-08-17T05:21:03;20.10;99.90
19817;DHT22;68323;49.394;8.434;2023-08-17T05:23:29;20.10;99.90
19817;DHT22;68323;49.394;8.434;2023-08-17T05:25:54;20.10;99.90
19817;DHT22;68323;49.394;8.434;2023-08-17T05:28:20;20.20;99.90
19817;DHT22;68323;49.394;8.434;2023-08-17T05:30:46;20.20;99.90
19817;DHT22;68323;49.394;8.434;2023-08-17T05:33:12;20.20;99.90
19817;DHT22;68323;49.394;8.434;2023-08-17T05:35:37;20.30;99.90
19817;DHT22;68323;49.394;8.434;2023-08-17T05:38:03;20.30;99.90
19817;DHT22;68323;49.394;8.434;2023-08-17T05:40:32;20.40;99.90
19817;DHT22;68323;49.394;8.434;2023-08-17T05:42:57;20.40;99.90
19817;DHT22;68323;49.394;8.434;2023-08-17T05:45:23;20.40;99.90
19817;DHT22;68323;49.394;8.434;2023-08-17T05:47:49;20.40;99.90
19817;DHT22;68323;49.394;8.434;2023-08-17T05:50:14;20.50;99.90
19817;DHT22;68323;49.394;8.434;2023-08-17T05:52:41;20.50;99.90
19817;DHT22;68323;49.394;8.434;2023-08-17T05:55:07;20.60;99.90
19817;DHT22;68323;49.394;8.434;2023-08-17T05:57:33;20.70;99.90
19817;DHT22;68323;49.394;8.434;2023-08-17T05:59:58;20.70;99.90
19817;DHT22;68323;49.394;8.434;2023-08-17T06:02:24;20.70;99.90
19817;DHT22;68323;49.394;8.434;2023-08-17T06:04:49;20.70;99.90
19817;DHT22;68323;49.394;8.434;2023-08-17T06:07:15;20.80;99.90
19817;DHT22;68323;49.394;8.434;2023-08-17T06:09:40;20.90;99.90
19817;DHT22;68323;49.394;8.434;2023-08-17T06:12:06;21.00;99.90
19817;DHT22;68323;49.394;8.434;2023-08-17T06:14:33;21.10;99.90
19817;DHT22;68323;49.394;8.434;2023-08-17T06:16:59;21.20;99.90
19817;DHT22;68323;49.394;8.434;2023-08-17T06:19:25;21.30;99.90
19817;DHT22;68323;49.394;8.434;2023-08-17T06:21:51;21.40;99.90
19817;DHT22;68323;49.394;8.434;2023-08-17T06:24:17;21.40;99.90
19817;DHT22;68323;49.394;8.434;2023-08-17T06:26:43;21.50;99.90
19817;DHT22;68323;49.394;8.434;2023-08-17T06:29:09;21.60;99.90
19817;DHT22;68323;49.394;8.434;2023-08-17T06:31:35;21.70;99.90
19817;DHT22;68323;49.394;8.434;2023-08-17T06:34:00;21.70;99.90
19817;DHT22;68323;49.394;8.434;2023-08-17T06:36:30;21.80;99.90
19817;DHT22;68323;49.394;8.434;2023-08-17T06:38:56;22.00;99.90
19817;DHT22;68323;49.394;8.434;2023-08-17T06:41:21;22.00;99.90
19817;DHT22;68323;49.394;8.434;2023-08-17T06:43:47;22.10;99.90
19817;DHT22;68323;49.394;8.434;2023-08-17T06:46:12;22.10;99.90
19817;DHT22;68323;49.394;8.434;2023-08-17T06:48:38;22.20;99.90
19817;DHT22;68323;49.394;8.434;2023-08-17T06:51:03;22.20;99.90
19817;DHT22;68323;49.394;8.434;2023-08-17T06:53:30;22.20;99.90
19817;DHT22;68323;49.394;8.434;2023-08-17T06:55:56;22.30;99.90
19817;DHT22;68323;49.394;8.434;2023-08-17T06:58:21;22.30;99.90
19817;DHT22;68323;49.394;8.434;2023-08-17T07:00:47;22.40;99.90
19817;DHT22;68323;49.394;8.434;2023-08-17T07:03:12;22.40;99.90
19817;DHT22;68323;49.394;8.434;2023-08-17T07:05:38;22.50;99.90
19817;DHT22;68323;49.394;8.434;2023-08-17T07:08:04;22.50;99.90
19817;DHT22;68323;49.394;8.434;2023-08-17T07:10:29;22.50;99.90
19817;DHT22;68323;49.394;8.434;2023-08-17T07:12:56;22.50;99.90
19817;DHT22;68323;49.394;8.434;2023-08-17T07:15:21;22.60;99.90
19817;DHT22;68323;49.394;8.434;2023-08-17T07:17:47;22.70;99.90
19817;DHT22;68323;49.394;8.434;2023-08-17T07:20:12;22.90;99.90
19817;DHT22;68323;49.394;8.434;2023-08-17T07:22:38;23.00;99.90
19817;DHT22;68323;49.394;8.434;2023-08-17T07:25:04;23.10;99.90
19817;DHT22;68323;49.394;8.434;2023-08-17T07:27:30;23.30;99.90
19817;DHT22;68323;49.394;8.434;2023-08-17T07:29:55;23.30;99.90
19817;DHT22;68323;49.394;8.434;2023-08-17T07:32:21;23.40;99.90
19817;DHT22;68323;49.394;8.434;2023-08-17T07:34:47;23.60;99.90
19817;DHT22;68323;49.394;8.434;2023-08-17T07:37:13;23.80;99.90
19817;DHT22;68323;49.394;8.434;2023-08-17T07:39:38;24.00;99.90
19817;DHT22;68323;49.394;8.434;2023-08-17T07:42:04;24.10;99.90
19817;DHT22;68323;49.394;8.434;2023-08-17T07:44:29;24.30;99.90
19817;DHT22;68323;49.394;8.434;2023-08-17T07:46:57;24.50;99.90
19817;DHT22;68323;49.394;8.434;2023-08-17T07:49:23;24.70;99.90
19817;DHT22;68323;49.394;8.434;2023-08-17T07:51:49;24.70;99.90
19817;DHT22;68323;49.394;8.434;2023-08-17T07:54:15;24.70;99.90
19817;DHT22;68323;49.394;8.434;2023-08-17T07:56:40;24.70;99.90
19817;DHT22;68323;49.394;8.434;2023-08-17T07:59:06;24.60;99.90
19817;DHT22;68323;49.394;8.434;2023-08-17T08:01:31;24.70;99.90
19817;DHT22;68323;49.394;8.434;2023-08-17T08:03:57;24.80;99.90
19817;DHT22;68323;49.394;8.434;2023-08-17T08:06:23;25.00;99.90
19817;DHT22;68323;49.394;8.434;2023-08-17T08:08:49;25.30;99.90
19817;DHT22;68323;49.394;8.434;2023-08-17T08:11:14;25.60;99.90
19817;DHT22;68323;49.394;8.434;2023-08-17T08:13:40;26.00;99.90
19817;DHT22;68323;49.394;8.434;2023-08-17T08:16:06;26.50;99.90
19817;DHT22;68323;49.394;8.434;2023-08-17T08:18:31;26.70;99.90
19817;DHT22;68323;49.394;8.434;2023-08-17T08:20:57;26.60;99.90
19817;DHT22;68323;49.394;8.434;2023-08-17T08:23:22;26.70;99.90
19817;DHT22;68323;49.394;8.434;2023-08-17T08:25:48;26.90;99.90
19817;DHT22;68323;49.394;8.434;2023-08-17T08:28:13;27.10;99.90
19817;DHT22;68323;49.394;8.434;2023-08-17T08:30:39;27.50;99.90
19817;DHT22;68323;49.394;8.434;2023-08-17T08:33:04;28.10;99.90
19817;DHT22;68323;49.394;8.434;2023-08-17T08:35:30;28.80;99.90
19817;DHT22;68323;49.394;8.434;2023-08-17T08:37:55;29.90;99.70
19817;DHT22;68323;49.394;8.434;2023-08-17T08:46:44;31.90;87.90
19817;DHT22;68323;49.394;8.434;2023-08-17T08:49:11;31.30;88.30
19817;DHT22;68323;49.394;8.434;2023-08-17T08:51:44;30.90;89.60
19817;DHT22;68323;49.394;8.434;2023-08-17T08:54:13;30.60;89.80
19817;DHT22;68323;49.394;8.434;2023-08-17T08:56:41;30.30;90.30
19817;DHT22;68323;49.394;8.434;2023-08-17T08:59:08;30.10;90.90
19817;DHT22;68323;49.394;8.434;2023-08-17T09:01:33;30.10;90.80
19817;DHT22;68323;49.394;8.434;2023-08-17T09:04:02;30.50;90.70
19817;DHT22;68323;49.394;8.434;2023-08-17T09:06:29;30.90;89.10
19817;DHT22;68323;49.394;8.434;2023-08-17T09:08:57;31.10;87.00
19817;DHT22;68323;49.394;8.434;2023-08-17T09:11:23;31.50;85.70
19817;DHT22;68323;49.394;8.434;2023-08-17T09:13:48;31.70;82.60
19817;DHT22;68323;49.394;8.434;2023-08-17T09:16:14;31.70;81.70
19817;DHT22;68323;49.394;8.434;2023-08-17T09:18:40;31.70;82.00
19817;DHT22;68323;49.394;8.434;2023-08-17T09:21:06;32.10;79.80
19817;DHT22;68323;49.394;8.434;2023-08-17T09:23:31;32.50;77.90
19817;DHT22;68323;49.394;8.434;2023-08-17T09:25:57;32.80;77.30
19817;DHT22;68323;49.394;8.434;2023-08-17T09:28:25;33.40;74.10
19817;DHT22;68323;49.394;8.434;2023-08-17T09:30:52;33.20;73.20
19817;DHT22;68323;49.394;8.434;2023-08-17T09:33:19;32.90;74.00
19817;DHT22;68323;49.394;8.434;2023-08-17T09:35:45;32.90;73.70
19817;DHT22;68323;49.394;8.434;2023-08-17T09:38:10;33.10;72.70
19817;DHT22;68323;49.394;8.434;2023-08-17T09:40:36;33.30;70.40
19817;DHT22;68323;49.394;8.434;2023-08-17T09:43:02;33.30;71.20
19817;DHT22;68323;49.394;8.434;2023-08-17T09:45:28;33.70;70.10
19817;DHT22;68323;49.394;8.434;2023-08-17T09:47:54;34.30;68.60
19817;DHT22;68323;49.394;8.434;2023-08-17T09:50:23;34.70;67.00
19817;DHT22;68323;49.394;8.434;2023-08-17T09:52:53;34.50;66.90
19817;DHT22;68323;49.394;8.434;2023-08-17T09:55:20;34.50;66.40
19817;DHT22;68323;49.394;8.434;2023-08-17T09:57:49;34.60;66.20
19817;DHT22;68323;49.394;8.434;2023-08-17T10:00:16;34.90;64.70
19817;DHT22;68323;49.394;8.434;2023-08-17T10:02:44;34.80;64.40
19817;DHT22;68323;49.394;8.434;2023-08-17T10:05:11;34.60;65.30
19817;DHT22;68323;49.394;8.434;2023-08-17T10:07:40;34.70;65.70
19817;DHT22;68323;49.394;8.434;2023-08-17T10:10:09;35.10;65.10
19817;DHT22;68323;49.394;8.434;2023-08-17T10:12:48;35.60;63.60
19817;DHT22;68323;49.394;8.434;2023-08-17T10:15:15;36.10;61.20
19817;DHT22;68323;49.394;8.434;2023-08-17T10:18:29;36.40;60.70
19817;DHT22;68323;49.394;8.434;2023-08-17T10:21:06;36.60;60.00
19817;DHT22;68323;49.394;8.434;2023-08-17T10:23:33;36.70;59.30
19817;DHT22;68323;49.394;8.434;2023-08-17T10:26:01;36.70;58.20
19817;DHT22;68323;49.394;8.434;2023-08-17T10:28:29;36.70;58.80
19817;DHT22;68323;49.394;8.434;2023-08-17T10:30:56;36.80;58.60
19817;DHT22;68323;49.394;8.434;2023-08-17T10:33:22;36.90;58.20
19817;DHT22;68323;49.394;8.434;2023-08-17T10:35:48;36.90;58.40
19817;DHT22;68323;49.394;8.434;2023-08-17T10:38:15;37.00;58.00
19817;DHT22;68323;49.394;8.434;2023-08-17T10:40:42;37.00;58.20
19817;DHT22;68323;49.394;8.434;2023-08-17T10:43:08;36.90;56.90
19817;DHT22;68323;49.394;8.434;2023-08-17T10:45:35;36.60;57.20
19817;DHT22;68323;49.394;8.434;2023-08-17T10:50:36;36.10;59.20
19817;DHT22;68323;49.394;8.434;2023-08-17T10:53:11;35.10;61.00
19817;DHT22;68323;49.394;8.434;2023-08-17T10:55:45;35.00;61.90
19817;DHT22;68323;49.394;8.434;2023-08-17T10:58:14;34.30;63.70
19817;DHT22;68323;49.394;8.434;2023-08-17T11:00:40;33.40;65.80
19817;DHT22;68323;49.394;8.434;2023-08-17T11:03:09;32.60;67.80
19817;DHT22;68323;49.394;8.434;2023-08-17T11:08:08;31.10;72.60
19817;DHT22;68323;49.394;8.434;2023-08-17T11:10:39;30.60;75.50
19817;DHT22;68323;49.394;8.434;2023-08-17T11:13:05;30.20;77.60
19817;DHT22;68323;49.394;8.434;2023-08-17T11:15:41;29.90;79.00
19817;DHT22;68323;49.394;8.434;2023-08-17T11:18:11;29.70;79.10
19817;DHT22;68323;49.394;8.434;2023-08-17T11:20:39;29.60;80.70
19817;DHT22;68323;49.394;8.434;2023-08-17T11:23:05;29.40;82.40
19817;DHT22;68323;49.394;8.434;2023-08-17T11:25:32;29.30;83.00
19817;DHT22;68323;49.394;8.434;2023-08-17T11:27:59;29.20;83.00
19817;DHT22;68323;49.394;8.434;2023-08-17T11:30:25;29.10;84.00
19817;DHT22;68323;49.394;8.434;2023-08-17T11:32:53;29.00;85.30
19817;DHT22;68323;49.394;8.434;2023-08-17T11:35:20;28.90;85.50
19817;DHT22;68323;49.394;8.434;2023-08-17T11:37:47;28.90;87.20
19817;DHT22;68323;49.394;8.434;2023-08-17T11:40:14;28.80;88.30
19817;DHT22;68323;49.394;8.434;2023-08-17T11:42:40;28.90;88.90
19817;DHT22;68323;49.394;8.434;2023-08-17T11:45:06;29.00;88.70
19817;DHT22;68323;49.394;8.434;2023-08-17T11:47:35;29.10;88.30
19817;DHT22;68323;49.394;8.434;2023-08-17T11:50:01;29.20;90.10
19817;DHT22;68323;49.394;8.434;2023-08-17T11:52:28;29.30;89.50
19817;DHT22;68323;49.394;8.434;2023-08-17T11:54:57;29.60;88.90
19817;DHT22;68323;49.394;8.434;2023-08-17T11:57:23;29.90;88.40
19817;DHT22;68323;49.394;8.434;2023-08-17T11:59:48;30.20;87.50
19817;DHT22;68323;49.394;8.434;2023-08-17T12:02:14;30.40;85.70
19817;DHT22;68323;49.394;8.434;2023-08-17T12:04:39;30.60;84.50
19817;DHT22;68323;49.394;8.434;2023-08-17T12:07:05;30.60;84.50
19817;DHT22;68323;49.394;8.434;2023-08-17T12:09:34;30.60;83.90
19817;DHT22;68323;49.394;8.434;2023-08-17T12:12:00;30.60;85.30
19817;DHT22;68323;49.394;8.434;2023-08-17T12:14:27;30.40;85.10
19817;DHT22;68323;49.394;8.434;2023-08-17T12:16:53;30.40;85.20
19817;DHT22;68323;49.394;8.434;2023-08-17T12:19:20;30.30;85.60
19817;DHT22;68323;49.394;8.434;2023-08-17T12:21:47;30.20;85.60
19817;DHT22;68323;49.394;8.434;2023-08-17T12:24:13;30.20;86.00
19817;DHT22;68323;49.394;8.434;2023-08-17T12:26:46;30.20;86.40
19817;DHT22;68323;49.394;8.434;2023-08-17T12:29:12;30.20;86.30
19817;DHT22;68323;49.394;8.434;2023-08-17T12:31:38;30.30;86.20
19817;DHT22;68323;49.394;8.434;2023-08-17T12:34:04;30.40;85.30
19817;DHT22;68323;49.394;8.434;2023-08-17T12:36:31;30.30;85.70
19817;DHT22;68323;49.394;8.434;2023-08-17T12:38:57;30.10;85.90
19817;DHT22;68323;49.394;8.434;2023-08-17T12:41:22;29.90;86.80
19817;DHT22;68323;49.394;8.434;2023-08-17T12:43:48;29.80;87.10
19817;DHT22;68323;49.394;8.434;2023-08-17T12:46:13;29.80;86.70
19817;DHT22;68323;49.394;8.434;2023-08-17T12:48:39;29.80;86.40
19817;DHT22;68323;49.394;8.434;2023-08-17T12:51:05;29.70;87.60
19817;DHT22;68323;49.394;8.434;2023-08-17T12:53:30;29.70;88.10
19817;DHT22;68323;49.394;8.434;2023-08-17T12:55:56;29.70;88.20
19817;DHT22;68323;49.394;8.434;2023-08-17T12:58:22;29.80;88.80
19817;DHT22;68323;49.394;8.434;2023-08-17T13:00:47;30.00;88.50
19817;DHT22;68323;49.394;8.434;2023-08-17T13:03:18;30.00;88.90
19817;DHT22;68323;49.394;8.434;2023-08-17T13:05:44;30.00;88.40
19817;DHT22;68323;49.394;8.434;2023-08-17T13:08:09;29.90;88.90
19817;DHT22;68323;49.394;8.434;2023-08-17T13:10:36;29.70;88.90
19817;DHT22;68323;49.394;8.434;2023-08-17T13:13:02;29.60;89.70
19817;DHT22;68323;49.394;8.434;2023-08-17T13:15:31;29.40;90.80
19817;DHT22;68323;49.394;8.434;2023-08-17T13:17:57;29.20;91.40
19817;DHT22;68323;49.394;8.434;2023-08-17T13:20:23;29.00;91.90
19817;DHT22;68323;49.394;8.434;2023-08-17T13:22:49;28.90;92.40
19817;DHT22;68323;49.394;8.434;2023-08-17T13:25:14;28.70;93.00
19817;DHT22;68323;49.394;8.434;2023-08-17T13:27:40;28.60;93.30
19817;DHT22;68323;49.394;8.434;2023-08-17T13:30:06;28.60;93.80
19817;DHT22;68323;49.394;8.434;2023-08-17T13:32:32;28.60;93.30
19817;DHT22;68323;49.394;8.434;2023-08-17T13:34:57;28.70;93.70
19817;DHT22;68323;49.394;8.434;2023-08-17T13:37:23;28.80;93.80
19817;DHT22;68323;49.394;8.434;2023-08-17T13:39:49;28.90;94.20
19817;DHT22;68323;49.394;8.434;2023-08-17T13:42:14;28.90;94.00
19817;DHT22;68323;49.394;8.434;2023-08-17T13:44:40;29.00;94.10
19817;DHT22;68323;49.394;8.434;2023-08-17T13:47:05;29.00;94.20
19817;DHT22;68323;49.394;8.434;2023-08-17T13:49:31;29.20;93.70
19817;DHT22;68323;49.394;8.434;2023-08-17T13:51:56;29.40;93.50
19817;DHT22;68323;49.394;8.434;2023-08-17T13:54:25;29.60;92.80
19817;DHT22;68323;49.394;8.434;2023-08-17T13:56:51;29.70;91.90
19817;DHT22;68323;49.394;8.434;2023-08-17T13:59:16;29.90;91.60
19817;DHT22;68323;49.394;8.434;2023-08-17T14:01:42;30.10;91.50
19817;DHT22;68323;49.394;8.434;2023-08-17T14:04:07;30.30;91.20
19817;DHT22;68323;49.394;8.434;2023-08-17T14:06:40;30.50;90.90
19817;DHT22;68323;49.394;8.434;2023-08-17T14:09:06;30.60;90.40
19817;DHT22;68323;49.394;8.434;2023-08-17T14:11:32;30.70;90.30
19817;DHT22;68323;49.394;8.434;2023-08-17T14:13:58;30.80;89.00
19817;DHT22;68323;49.394;8.434;2023-08-17T14:16:23;30.80;88.40
19817;DHT22;68323;49.394;8.434;2023-08-17T14:18:49;30.70;88.40
19817;DHT22;68323;49.394;8.434;2023-08-17T14:21:15;30.70;87.80
19817;DHT22;68323;49.394;8.434;2023-08-17T14:23:40;30.60;88.10
19817;DHT22;68323;49.394;8.434;2023-08-17T14:26:06;30.60;89.20
19817;DHT22;68323;49.394;8.434;2023-08-17T14:28:31;30.70;89.40
19817;DHT22;68323;49.394;8.434;2023-08-17T14:30:57;30.80;88.50
19817;DHT22;68323;49.394;8.434;2023-08-17T14:33:23;30.90;89.00
19817;DHT22;68323;49.394;8.434;2023-08-17T14:35:49;31.00;87.40
19817;DHT22;68323;49.394;8.434;2023-08-17T14:38:14;30.80;87.40
19817;DHT22;68323;49.394;8.434;2023-08-17T14:40:44;30.80;88.10
19817;DHT22;68323;49.394;8.434;2023-08-17T14:43:11;30.70;88.50
19817;DHT22;68323;49.394;8.434;2023-08-17T14:45:39;30.60;88.40
19817;DHT22;68323;49.394;8.434;2023-08-17T14:48:05;30.60;88.70
19817;DHT22;68323;49.394;8.434;2023-08-17T14:50:31;30.70;88.90
19817;DHT22;68323;49.394;8.434;2023-08-17T14:52:56;30.80;88.60
19817;DHT22;68323;49.394;8.434;2023-08-17T14:55:22;31.10;88.10
19817;DHT22;68323;49.394;8.434;2023-08-17T14:57:47;31.20;87.90
19817;DHT22;68323;49.394;8.434;2023-08-17T15:00:13;31.30;87.70
19817;DHT22;68323;49.394;8.434;2023-08-17T15:02:39;31.50;86.30
19817;DHT22;68323;49.394;8.434;2023-08-17T15:05:05;31.60;83.20
19817;DHT22;68323;49.394;8.434;2023-08-17T15:07:31;31.70;81.50
19817;DHT22;68323;49.394;8.434;2023-08-17T15:09:57;31.70;81.90
19817;DHT22;68323;49.394;8.434;2023-08-17T15:12:22;31.80;81.10
19817;DHT22;68323;49.394;8.434;2023-08-17T15:14:48;31.80;81.50
19817;DHT22;68323;49.394;8.434;2023-08-17T15:17:13;31.80;81.90
19817;DHT22;68323;49.394;8.434;2023-08-17T15:19:39;31.80;81.20
19817;DHT22;68323;49.394;8.434;2023-08-17T15:22:04;31.90;80.10
19817;DHT22;68323;49.394;8.434;2023-08-17T15:24:30;32.00;79.60
19817;DHT22;68323;49.394;8.434;2023-08-17T15:26:55;32.10;79.70
19817;DHT22;68323;49.394;8.434;2023-08-17T15:29:21;32.20;78.40
19817;DHT22;68323;49.394;8.434;2023-08-17T15:31:46;32.30;77.70
19817;DHT22;68323;49.394;8.434;2023-08-17T15:34:12;32.50;77.40
19817;DHT22;68323;49.394;8.434;2023-08-17T15:36:37;32.50;77.40